sensor_id;sensor_type;location;lat;lon;timestamp;P1;durP1;ratioP1;P2;durP2;ratioP2
8622;SDS011;4349;47.552;8.904;2022-08-01T00:00:46;2.93;;;2.80;;
8622;SDS011;4349;47.552;8.904;2022-08-01T00:03:13;2.80;;;2.70;;
8622;SDS011;4349;47.552;8.904;2022-08-01T00:05:42;2.97;;;2.87;;
8622;SDS011;4349;47.552;8.904;2022-08-01T00:08:11;3.00;;;2.90;;
8622;SDS011;4349;47.552;8.904;2022-08-01T00:10:39;2.90;;;2.80;;
8622;SDS011;4349;47.552;8.904;2022-08-01T00:13:06;2.70;;;2.60;;
8622;SDS011;4349;47.552;8.904;2022-08-01T00:15:35;2.93;;;2.83;;
8622;SDS011;4349;47.552;8.904;2022-08-01T00:18:03;2.67;;;2.57;;
8622;SDS011;4349;47.552;8.904;2022-08-01T00:20:31;3.00;;;2.90;;
8622;SDS011;4349;47.552;8.904;2022-08-01T00:22:59;3.33;;;3.13;;
8622;SDS011;4349;47.552;8.904;2022-08-01T00:25:29;3.30;;;3.13;;
8622;SDS011;4349;47.552;8.904;2022-08-01T00:27:59;2.80;;;2.60;;
8622;SDS011;4349;47.552;8.904;2022-08-01T00:30:29;3.07;;;2.90;;
8622;SDS011;4349;47.552;8.904;2022-08-01T00:32:57;2.90;;;2.80;;
8622;SDS011;4349;47.552;8.904;2022-08-01T00:35:24;3.27;;;3.07;;
8622;SDS011;4349;47.552;8.904;2022-08-01T00:37:52;3.07;;;2.97;;
8622;SDS011;4349;47.552;8.904;2022-08-01T00:40:21;2.83;;;2.73;;
8622;SDS011;4349;47.552;8.904;2022-08-01T00:42:49;2.90;;;2.80;;
8622;SDS011;4349;47.552;8.904;2022-08-01T00:45:16;2.90;;;2.80;;
8622;SDS011;4349;47.552;8.904;2022-08-01T00:47:44;3.00;;;2.90;;
8622;SDS011;4349;47.552;8.904;2022-08-01T00:50:12;3.10;;;2.90;;
8622;SDS011;4349;47.552;8.904;2022-08-01T00:52:39;2.90;;;2.80;;
8622;SDS011;4349;47.552;8.904;2022-08-01T00:55:07;3.60;;;3.30;;
8622;SDS011;4349;47.552;8.904;2022-08-01T00:57:42;3.40;;;3.20;;
8622;SDS011;4349;47.552;8.904;2022-08-01T01:00:29;3.17;;;3.07;;
8622;SDS011;4349;47.552;8.904;2022-08-01T01:03:18;3.20;;;3.10;;
8622;SDS011;4349;47.552;8.904;2022-08-01T01:05:56;3.10;;;3.00;;
8622;SDS011;4349;47.552;8.904;2022-08-01T01:08:30;3.33;;;3.23;;
8622;SDS011;4349;47.552;8.904;2022-08-01T01:11:01;3.60;;;3.37;;
8622;SDS011;4349;47.552;8.904;2022-08-01T01:13:33;3.20;;;3.00;;
8622;SDS011;4349;47.552;8.904;2022-08-01T01:16:15;3.20;;;3.10;;
8622;SDS011;4349;47.552;8.904;2022-08-01T01:18:45;3.83;;;3.23;;
8622;SDS011;4349;47.552;8.904;2022-08-01T01:21:22;3.23;;;3.13;;
8622;SDS011;4349;47.552;8.904;2022-08-01T01:23:54;3.37;;;3.20;;
8622;SDS011;4349;47.552;8.904;2022-08-01T01:26:26;3.30;;;3.20;;
8622;SDS011;4349;47.552;8.904;2022-08-01T01:29:05;3.70;;;3.50;;
8622;SDS011;4349;47.552;8.904;2022-08-01T01:31:36;3.60;;;3.30;;
8622;SDS011;4349;47.552;8.904;2022-08-01T01:34:08;3.93;;;3.63;;
8622;SDS011;4349;47.552;8.904;2022-08-01T01:36:36;3.60;;;3.50;;
8622;SDS011;4349;47.552;8.904;2022-08-01T01:39:05;3.83;;;3.73;;
8622;SDS011;4349;47.552;8.904;2022-08-01T01:41:34;4.37;;;4.17;;
8622;SDS011;4349;47.552;8.904;2022-08-01T01:44:02;3.67;;;3.57;;
8622;SDS011;4349;47.552;8.904;2022-08-01T01:46:32;3.70;;;3.50;;
8622;SDS011;4349;47.552;8.904;2022-08-01T01:49:00;3.97;;;3.83;;
8622;SDS011;4349;47.552;8.904;2022-08-01T01:51:28;3.63;;;3.50;;
8622;SDS011;4349;47.552;8.904;2022-08-01T01:53:57;3.40;;;3.30;;
8622;SDS011;4349;47.552;8.904;2022-08-01T01:56:25;3.70;;;3.50;;
8622;SDS011;4349;47.552;8.904;2022-08-01T01:58:54;3.60;;;3.37;;
8622;SDS011;4349;47.552;8.904;2022-08-01T02:01:23;3.60;;;3.50;;
8622;SDS011;4349;47.552;8.904;2022-08-01T02:04:14;3.70;;;3.50;;
8622;SDS011;4349;47.552;8.904;2022-08-01T02:06:42;3.97;;;3.87;;
8622;SDS011;4349;47.552;8.904;2022-08-01T02:09:10;3.70;;;3.50;;
8622;SDS011;4349;47.552;8.904;2022-08-01T02:11:38;3.93;;;3.73;;
8622;SDS011;4349;47.552;8.904;2022-08-01T02:14:27;3.70;;;3.60;;
8622;SDS011;4349;47.552;8.904;2022-08-01T02:16:56;4.07;;;3.87;;
8622;SDS011;4349;47.552;8.904;2022-08-01T02:19:25;4.27;;;4.07;;
8622;SDS011;4349;47.552;8.904;2022-08-01T02:21:55;4.30;;;3.97;;
8622;SDS011;4349;47.552;8.904;2022-08-01T02:24:24;3.90;;;3.80;;
8622;SDS011;4349;47.552;8.904;2022-08-01T02:26:56;3.90;;;3.70;;
8622;SDS011;4349;47.552;8.904;2022-08-01T02:29:27;4.03;;;3.83;;
8622;SDS011;4349;47.552;8.904;2022-08-01T02:31:55;3.83;;;3.73;;
8622;SDS011;4349;47.552;8.904;2022-08-01T02:34:22;4.13;;;4.00;;
8622;SDS011;4349;47.552;8.904;2022-08-01T02:36:53;4.60;;;4.20;;
8622;SDS011;4349;47.552;8.904;2022-08-01T02:39:21;3.90;;;3.70;;
8622;SDS011;4349;47.552;8.904;2022-08-01T02:41:50;4.33;;;4.13;;
8622;SDS011;4349;47.552;8.904;2022-08-01T02:44:23;4.10;;;3.90;;
8622;SDS011;4349;47.552;8.904;2022-08-01T02:46:51;4.30;;;4.10;;
8622;SDS011;4349;47.552;8.904;2022-08-01T02:49:20;4.07;;;3.87;;
8622;SDS011;4349;47.552;8.904;2022-08-01T02:51:48;4.00;;;3.90;;
8622;SDS011;4349;47.552;8.904;2022-08-01T02:54:18;3.80;;;3.70;;
8622;SDS011;4349;47.552;8.904;2022-08-01T02:56:47;4.13;;;3.93;;
8622;SDS011;4349;47.552;8.904;2022-08-01T02:59:16;3.73;;;3.43;;
8622;SDS011;4349;47.552;8.904;2022-08-01T03:01:47;4.00;;;3.80;;
8622;SDS011;4349;47.552;8.904;2022-08-01T03:04:20;4.10;;;3.80;;
8622;SDS011;4349;47.552;8.904;2022-08-01T03:06:49;4.17;;;3.97;;
8622;SDS011;4349;47.552;8.904;2022-08-01T03:09:19;4.20;;;4.00;;
8622;SDS011;4349;47.552;8.904;2022-08-01T03:11:47;3.70;;;3.60;;
8622;SDS011;4349;47.552;8.904;2022-08-01T03:14:16;4.07;;;3.97;;
8622;SDS011;4349;47.552;8.904;2022-08-01T03:16:45;4.10;;;3.90;;
8622;SDS011;4349;47.552;8.904;2022-08-01T03:19:14;3.87;;;3.70;;
8622;SDS011;4349;47.552;8.904;2022-08-01T03:21:43;4.10;;;3.90;;
8622;SDS011;4349;47.552;8.904;2022-08-01T03:24:11;3.77;;;3.60;;
8622;SDS011;4349;47.552;8.904;2022-08-01T03:26:41;3.30;;;3.20;;
8622;SDS011;4349;47.552;8.904;2022-08-01T03:29:11;3.77;;;3.67;;
8622;SDS011;4349;47.552;8.904;2022-08-01T03:31:40;4.87;;;4.47;;
8622;SDS011;4349;47.552;8.904;2022-08-01T03:34:09;3.97;;;3.67;;
8622;SDS011;4349;47.552;8.904;2022-08-01T03:36:43;3.73;;;3.63;;
8622;SDS011;4349;47.552;8.904;2022-08-01T03:39:15;4.23;;;3.83;;
8622;SDS011;4349;47.552;8.904;2022-08-01T03:41:46;4.10;;;3.90;;
8622;SDS011;4349;47.552;8.904;2022-08-01T03:44:22;4.30;;;4.00;;
8622;SDS011;4349;47.552;8.904;2022-08-01T03:46:52;3.90;;;3.70;;
8622;SDS011;4349;47.552;8.904;2022-08-01T03:49:21;4.13;;;3.90;;
8622;SDS011;4349;47.552;8.904;2022-08-01T03:51:50;4.90;;;4.60;;
8622;SDS011;4349;47.552;8.904;2022-08-01T03:54:20;4.40;;;4.20;;
8622;SDS011;4349;47.552;8.904;2022-08-01T03:56:50;4.40;;;4.20;;
8622;SDS011;4349;47.552;8.904;2022-08-01T03:59:18;4.60;;;4.40;;
8622;SDS011;4349;47.552;8.904;2022-08-01T04:01:46;4.07;;;3.97;;
8622;SDS011;4349;47.552;8.904;2022-08-01T04:04:15;4.73;;;4.33;;
8622;SDS011;4349;47.552;8.904;2022-08-01T04:06:42;4.67;;;4.47;;
8622;SDS011;4349;47.552;8.904;2022-08-01T04:09:11;4.77;;;4.40;;
8622;SDS011;4349;47.552;8.904;2022-08-01T04:11:39;4.80;;;4.40;;
8622;SDS011;4349;47.552;8.904;2022-08-01T04:14:08;5.40;;;5.03;;
8622;SDS011;4349;47.552;8.904;2022-08-01T04:16:36;4.40;;;4.30;;
8622;SDS011;4349;47.552;8.904;2022-08-01T04:19:04;4.30;;;4.10;;
8622;SDS011;4349;47.552;8.904;2022-08-01T04:21:33;4.23;;;4.03;;
8622;SDS011;4349;47.552;8.904;2022-08-01T04:24:03;4.03;;;3.70;;
8622;SDS011;4349;47.552;8.904;2022-08-01T04:26:31;3.87;;;3.73;;
8622;SDS011;4349;47.552;8.904;2022-08-01T04:28:59;3.93;;;3.80;;
8622;SDS011;4349;47.552;8.904;2022-08-01T04:31:31;5.07;;;4.60;;
8622;SDS011;4349;47.552;8.904;2022-08-01T04:33:59;4.27;;;4.07;;
8622;SDS011;4349;47.552;8.904;2022-08-01T04:36:28;4.10;;;4.00;;
8622;SDS011;4349;47.552;8.904;2022-08-01T04:38:57;4.40;;;4.20;;
8622;SDS011;4349;47.552;8.904;2022-08-01T04:41:26;4.03;;;3.83;;
8622;SDS011;4349;47.552;8.904;2022-08-01T04:43:54;4.30;;;4.00;;
8622;SDS011;4349;47.552;8.904;2022-08-01T04:46:21;4.50;;;4.20;;
8622;SDS011;4349;47.552;8.904;2022-08-01T04:48:51;4.33;;;4.13;;
8622;SDS011;4349;47.552;8.904;2022-08-01T04:51:21;4.30;;;4.10;;
8622;SDS011;4349;47.552;8.904;2022-08-01T04:53:49;4.40;;;4.10;;
8622;SDS011;4349;47.552;8.904;2022-08-01T04:56:17;4.97;;;4.63;;
8622;SDS011;4349;47.552;8.904;2022-08-01T04:58:45;5.07;;;4.77;;
8622;SDS011;4349;47.552;8.904;2022-08-01T05:01:13;4.67;;;4.43;;
8622;SDS011;4349;47.552;8.904;2022-08-01T05:03:41;4.70;;;4.50;;
8622;SDS011;4349;47.552;8.904;2022-08-01T05:06:10;4.30;;;4.10;;
8622;SDS011;4349;47.552;8.904;2022-08-01T05:08:37;4.70;;;4.30;;
8622;SDS011;4349;47.552;8.904;2022-08-01T05:11:05;4.43;;;4.13;;
8622;SDS011;4349;47.552;8.904;2022-08-01T05:13:32;3.97;;;3.77;;
8622;SDS011;4349;47.552;8.904;2022-08-01T05:16:00;4.87;;;3.73;;
8622;SDS011;4349;47.552;8.904;2022-08-01T05:18:29;3.87;;;3.67;;
8622;SDS011;4349;47.552;8.904;2022-08-01T05:20:58;3.83;;;3.57;;
8622;SDS011;4349;47.552;8.904;2022-08-01T05:23:27;3.80;;;3.60;;
8622;SDS011;4349;47.552;8.904;2022-08-01T05:26:08;3.70;;;3.40;;
8622;SDS011;4349;47.552;8.904;2022-08-01T05:28:36;3.87;;;3.67;;
8622;SDS011;4349;47.552;8.904;2022-08-01T05:31:04;3.60;;;3.40;;
8622;SDS011;4349;47.552;8.904;2022-08-01T05:33:31;3.20;;;3.10;;
8622;SDS011;4349;47.552;8.904;2022-08-01T05:35:59;3.70;;;3.50;;
8622;SDS011;4349;47.552;8.904;2022-08-01T05:38:28;3.50;;;3.40;;
8622;SDS011;4349;47.552;8.904;2022-08-01T05:40:55;3.03;;;2.93;;
8622;SDS011;4349;47.552;8.904;2022-08-01T05:43:23;3.30;;;3.20;;
8622;SDS011;4349;47.552;8.904;2022-08-01T05:45:54;3.40;;;3.30;;
8622;SDS011;4349;47.552;8.904;2022-08-01T05:48:22;3.70;;;3.50;;
8622;SDS011;4349;47.552;8.904;2022-08-01T05:50:49;3.87;;;3.77;;
8622;SDS011;4349;47.552;8.904;2022-08-01T05:53:23;3.77;;;3.63;;
8622;SDS011;4349;47.552;8.904;2022-08-01T05:55:52;3.77;;;3.67;;
8622;SDS011;4349;47.552;8.904;2022-08-01T05:58:20;3.93;;;3.73;;
8622;SDS011;4349;47.552;8.904;2022-08-01T06:00:48;4.00;;;3.80;;
8622;SDS011;4349;47.552;8.904;2022-08-01T06:03:15;3.73;;;3.53;;
8622;SDS011;4349;47.552;8.904;2022-08-01T06:05:43;3.60;;;3.40;;
8622;SDS011;4349;47.552;8.904;2022-08-01T06:08:10;3.77;;;3.60;;
8622;SDS011;4349;47.552;8.904;2022-08-01T06:10:38;3.57;;;3.37;;
8622;SDS011;4349;47.552;8.904;2022-08-01T06:13:07;3.60;;;3.50;;
8622;SDS011;4349;47.552;8.904;2022-08-01T06:15:34;4.00;;;3.80;;
8622;SDS011;4349;47.552;8.904;2022-08-01T06:18:02;3.93;;;3.77;;
8622;SDS011;4349;47.552;8.904;2022-08-01T06:20:31;3.60;;;3.40;;
8622;SDS011;4349;47.552;8.904;2022-08-01T06:22:58;3.70;;;3.50;;
8622;SDS011;4349;47.552;8.904;2022-08-01T06:25:31;3.53;;;3.37;;
8622;SDS011;4349;47.552;8.904;2022-08-01T06:27:59;3.17;;;3.07;;
8622;SDS011;4349;47.552;8.904;2022-08-01T06:30:28;3.83;;;3.50;;
8622;SDS011;4349;47.552;8.904;2022-08-01T06:32:56;3.57;;;3.37;;
8622;SDS011;4349;47.552;8.904;2022-08-01T06:35:24;3.63;;;3.40;;
8622;SDS011;4349;47.552;8.904;2022-08-01T06:37:52;3.43;;;3.23;;
8622;SDS011;4349;47.552;8.904;2022-08-01T06:40:20;3.60;;;3.50;;
8622;SDS011;4349;47.552;8.904;2022-08-01T06:42:47;3.47;;;3.37;;
8622;SDS011;4349;47.552;8.904;2022-08-01T06:45:15;3.60;;;3.37;;
8622;SDS011;4349;47.552;8.904;2022-08-01T06:47:44;3.93;;;3.63;;
8622;SDS011;4349;47.552;8.904;2022-08-01T06:50:16;3.60;;;3.40;;
8622;SDS011;4349;47.552;8.904;2022-08-01T06:52:43;3.60;;;3.50;;
8622;SDS011;4349;47.552;8.904;2022-08-01T06:55:11;3.40;;;3.30;;
8622;SDS011;4349;47.552;8.904;2022-08-01T06:57:44;3.37;;;3.27;;
8622;SDS011;4349;47.552;8.904;2022-08-01T07:00:12;3.30;;;3.20;;
8622;SDS011;4349;47.552;8.904;2022-08-01T07:02:42;3.10;;;3.00;;
8622;SDS011;4349;47.552;8.904;2022-08-01T07:05:11;3.43;;;3.33;;
8622;SDS011;4349;47.552;8.904;2022-08-01T07:07:39;3.43;;;3.23;;
8622;SDS011;4349;47.552;8.904;2022-08-01T07:10:07;3.90;;;3.60;;
8622;SDS011;4349;47.552;8.904;2022-08-01T07:12:35;3.70;;;3.50;;
8622;SDS011;4349;47.552;8.904;2022-08-01T07:15:04;3.43;;;3.30;;
8622;SDS011;4349;47.552;8.904;2022-08-01T07:17:32;3.70;;;3.40;;
8622;SDS011;4349;47.552;8.904;2022-08-01T07:19:59;3.27;;;3.17;;
8622;SDS011;4349;47.552;8.904;2022-08-01T07:22:29;3.20;;;3.10;;
8622;SDS011;4349;47.552;8.904;2022-08-01T07:25:03;3.50;;;3.20;;
8622;SDS011;4349;47.552;8.904;2022-08-01T07:27:30;2.90;;;2.80;;
8622;SDS011;4349;47.552;8.904;2022-08-01T07:29:58;3.17;;;3.07;;
8622;SDS011;4349;47.552;8.904;2022-08-01T07:32:26;2.80;;;2.70;;
8622;SDS011;4349;47.552;8.904;2022-08-01T07:34:55;3.60;;;3.40;;
8622;SDS011;4349;47.552;8.904;2022-08-01T07:37:23;2.97;;;2.87;;
8622;SDS011;4349;47.552;8.904;2022-08-01T07:40:12;3.50;;;3.30;;
8622;SDS011;4349;47.552;8.904;2022-08-01T07:42:39;3.23;;;2.90;;
8622;SDS011;4349;47.552;8.904;2022-08-01T07:45:09;3.07;;;2.87;;
8622;SDS011;4349;47.552;8.904;2022-08-01T07:47:37;3.87;;;3.53;;
8622;SDS011;4349;47.552;8.904;2022-08-01T07:50:05;3.23;;;3.03;;
8622;SDS011;4349;47.552;8.904;2022-08-01T07:52:33;3.93;;;3.63;;
8622;SDS011;4349;47.552;8.904;2022-08-01T07:55:01;3.60;;;3.40;;
8622;SDS011;4349;47.552;8.904;2022-08-01T07:57:30;3.80;;;3.50;;
8622;SDS011;4349;47.552;8.904;2022-08-01T07:59:57;3.70;;;3.60;;
8622;SDS011;4349;47.552;8.904;2022-08-01T08:02:29;3.20;;;3.10;;
8622;SDS011;4349;47.552;8.904;2022-08-01T08:04:57;3.57;;;3.27;;
8622;SDS011;4349;47.552;8.904;2022-08-01T08:07:24;3.30;;;3.20;;
8622;SDS011;4349;47.552;8.904;2022-08-01T08:09:52;3.47;;;3.20;;
8622;SDS011;4349;47.552;8.904;2022-08-01T08:12:19;3.83;;;3.60;;
8622;SDS011;4349;47.552;8.904;2022-08-01T08:14:56;2.80;;;2.70;;
8622;SDS011;4349;47.552;8.904;2022-08-01T08:17:25;3.00;;;2.80;;
8622;SDS011;4349;47.552;8.904;2022-08-01T08:19:52;2.97;;;2.87;;
8622;SDS011;4349;47.552;8.904;2022-08-01T08:22:20;3.00;;;2.90;;
8622;SDS011;4349;47.552;8.904;2022-08-01T08:24:48;3.03;;;2.93;;
8622;SDS011;4349;47.552;8.904;2022-08-01T08:27:15;3.00;;;2.80;;
8622;SDS011;4349;47.552;8.904;2022-08-01T08:29:44;2.65;;;2.55;;
8622;SDS011;4349;47.552;8.904;2022-08-01T08:32:13;2.70;;;2.60;;
8622;SDS011;4349;47.552;8.904;2022-08-01T08:34:41;2.90;;;2.80;;
8622;SDS011;4349;47.552;8.904;2022-08-01T08:37:08;3.10;;;2.90;;
8622;SDS011;4349;47.552;8.904;2022-08-01T08:39:36;3.00;;;2.90;;
8622;SDS011;4349;47.552;8.904;2022-08-01T08:42:07;2.92;;;2.83;;
8622;SDS011;4349;47.552;8.904;2022-08-01T08:44:35;3.20;;;3.10;;
8622;SDS011;4349;47.552;8.904;2022-08-01T08:47:09;3.10;;;2.90;;
8622;SDS011;4349;47.552;8.904;2022-08-01T08:49:45;3.05;;;2.85;;
8622;SDS011;4349;47.552;8.904;2022-08-01T08:52:14;2.72;;;2.63;;
8622;SDS011;4349;47.552;8.904;2022-08-01T08:54:42;2.80;;;2.70;;
8622;SDS011;4349;47.552;8.904;2022-08-01T08:57:12;3.17;;;2.97;;
8622;SDS011;4349;47.552;8.904;2022-08-01T08:59:40;3.25;;;3.05;;
8622;SDS011;4349;47.552;8.904;2022-08-01T09:02:10;2.90;;;2.80;;
8622;SDS011;4349;47.552;8.904;2022-08-01T09:04:39;2.90;;;2.80;;
8622;SDS011;4349;47.552;8.904;2022-08-01T09:07:09;2.60;;;2.50;;
8622;SDS011;4349;47.552;8.904;2022-08-01T09:09:37;2.42;;;2.42;;
8622;SDS011;4349;47.552;8.904;2022-08-01T09:12:07;2.97;;;2.30;;
8622;SDS011;4349;47.552;8.904;2022-08-01T09:14:44;2.78;;;2.58;;
8622;SDS011;4349;47.552;8.904;2022-08-01T09:17:12;2.85;;;2.75;;
8622;SDS011;4349;47.552;8.904;2022-08-01T09:19:41;3.00;;;2.80;;
8622;SDS011;4349;47.552;8.904;2022-08-01T09:22:11;2.78;;;2.67;;
8622;SDS011;4349;47.552;8.904;2022-08-01T09:24:38;3.10;;;2.92;;
8622;SDS011;4349;47.552;8.904;2022-08-01T09:27:15;2.80;;;2.70;;
8622;SDS011;4349;47.552;8.904;2022-08-01T09:29:46;2.90;;;2.80;;
8622;SDS011;4349;47.552;8.904;2022-08-01T09:32:27;2.70;;;2.60;;
8622;SDS011;4349;47.552;8.904;2022-08-01T09:35:03;3.17;;;2.88;;
8622;SDS011;4349;47.552;8.904;2022-08-01T09:37:50;2.65;;;2.55;;
8622;SDS011;4349;47.552;8.904;2022-08-01T09:40:18;2.88;;;2.78;;
8622;SDS011;4349;47.552;8.904;2022-08-01T09:42:46;2.70;;;2.60;;
8622;SDS011;4349;47.552;8.904;2022-08-01T09:45:31;3.38;;;3.28;;
8622;SDS011;4349;47.552;8.904;2022-08-01T09:48:09;3.17;;;3.08;;
8622;SDS011;4349;47.552;8.904;2022-08-01T09:50:39;2.60;;;2.50;;
8622;SDS011;4349;47.552;8.904;2022-08-01T09:53:08;3.13;;;2.90;;
8622;SDS011;4349;47.552;8.904;2022-08-01T09:55:54;2.50;;;2.40;;
8622;SDS011;4349;47.552;8.904;2022-08-01T09:58:48;2.42;;;2.28;;
8622;SDS011;4349;47.552;8.904;2022-08-01T10:01:24;2.70;;;2.60;;
8622;SDS011;4349;47.552;8.904;2022-08-01T10:04:05;2.70;;;2.55;;
8622;SDS011;4349;47.552;8.904;2022-08-01T10:06:35;2.42;;;2.38;;
8622;SDS011;4349;47.552;8.904;2022-08-01T10:09:05;2.90;;;2.70;;
8622;SDS011;4349;47.552;8.904;2022-08-01T10:11:32;2.78;;;2.67;;
8622;SDS011;4349;47.552;8.904;2022-08-01T10:14:04;2.63;;;2.53;;
8622;SDS011;4349;47.552;8.904;2022-08-01T10:16:33;3.35;;;3.15;;
8622;SDS011;4349;47.552;8.904;2022-08-01T10:19:02;2.83;;;2.63;;
8622;SDS011;4349;47.552;8.904;2022-08-01T10:21:36;2.58;;;2.47;;
8622;SDS011;4349;47.552;8.904;2022-08-01T10:24:25;2.70;;;2.50;;
8622;SDS011;4349;47.552;8.904;2022-08-01T10:26:55;2.38;;;2.30;;
8622;SDS011;4349;47.552;8.904;2022-08-01T10:29:24;2.33;;;2.30;;
8622;SDS011;4349;47.552;8.904;2022-08-01T10:32:12;2.55;;;2.35;;
8622;SDS011;4349;47.552;8.904;2022-08-01T10:34:40;2.88;;;2.78;;
8622;SDS011;4349;47.552;8.904;2022-08-01T10:37:10;2.55;;;2.45;;
8622;SDS011;4349;47.552;8.904;2022-08-01T10:39:40;2.42;;;2.33;;
8622;SDS011;4349;47.552;8.904;2022-08-01T10:42:09;2.33;;;2.22;;
8622;SDS011;4349;47.552;8.904;2022-08-01T10:44:41;2.60;;;2.50;;
8622;SDS011;4349;47.552;8.904;2022-08-01T10:47:15;2.55;;;2.45;;
8622;SDS011;4349;47.552;8.904;2022-08-01T10:49:53;2.45;;;2.30;;
8622;SDS011;4349;47.552;8.904;2022-08-01T10:52:23;3.00;;;2.90;;
8622;SDS011;4349;47.552;8.904;2022-08-01T10:55:02;2.70;;;2.60;;
8622;SDS011;4349;47.552;8.904;2022-08-01T10:57:40;2.42;;;2.40;;
8622;SDS011;4349;47.552;8.904;2022-08-01T11:00:18;2.60;;;2.40;;
8622;SDS011;4349;47.552;8.904;2022-08-01T11:02:56;2.40;;;2.30;;
8622;SDS011;4349;47.552;8.904;2022-08-01T11:05:24;2.75;;;2.65;;
8622;SDS011;4349;47.552;8.904;2022-08-01T11:07:53;2.63;;;2.53;;
8622;SDS011;4349;47.552;8.904;2022-08-01T11:10:24;2.40;;;2.30;;
8622;SDS011;4349;47.552;8.904;2022-08-01T11:12:52;2.47;;;2.42;;
8622;SDS011;4349;47.552;8.904;2022-08-01T11:15:22;2.70;;;2.60;;
8622;SDS011;4349;47.552;8.904;2022-08-01T11:18:00;2.08;;;2.08;;
8622;SDS011;4349;47.552;8.904;2022-08-01T11:20:28;2.30;;;2.20;;
8622;SDS011;4349;47.552;8.904;2022-08-01T11:29:16;2.20;;;2.20;;
8622;SDS011;4349;47.552;8.904;2022-08-01T11:31:47;2.20;;;2.10;;
8622;SDS011;4349;47.552;8.904;2022-08-01T11:34:15;2.20;;;2.10;;
8622;SDS011;4349;47.552;8.904;2022-08-01T11:36:42;2.25;;;2.15;;
8622;SDS011;4349;47.552;8.904;2022-08-01T11:39:25;3.00;;;2.17;;
8622;SDS011;4349;47.552;8.904;2022-08-01T11:41:55;1.95;;;1.95;;
8622;SDS011;4349;47.552;8.904;2022-08-01T11:44:25;2.08;;;2.00;;
8622;SDS011;4349;47.552;8.904;2022-08-01T11:46:56;2.45;;;2.35;;
8622;SDS011;4349;47.552;8.904;2022-08-01T11:52:24;2.35;;;2.25;;
8622;SDS011;4349;47.552;8.904;2022-08-01T11:54:53;2.00;;;2.00;;
8622;SDS011;4349;47.552;8.904;2022-08-01T11:57:22;2.28;;;2.28;;
8622;SDS011;4349;47.552;8.904;2022-08-01T12:00:03;2.40;;;2.30;;
8622;SDS011;4349;47.552;8.904;2022-08-01T12:02:40;2.00;;;2.00;;
8622;SDS011;4349;47.552;8.904;2022-08-01T12:05:11;2.58;;;2.40;;
8622;SDS011;4349;47.552;8.904;2022-08-01T12:07:40;2.90;;;2.45;;
8622;SDS011;4349;47.552;8.904;2022-08-01T12:10:08;2.40;;;2.30;;
8622;SDS011;4349;47.552;8.904;2022-08-01T12:12:43;2.40;;;2.30;;
8622;SDS011;4349;47.552;8.904;2022-08-01T12:15:12;2.38;;;2.20;;
8622;SDS011;4349;47.552;8.904;2022-08-01T12:17:41;2.38;;;2.20;;
8622;SDS011;4349;47.552;8.904;2022-08-01T12:20:13;1.95;;;1.95;;
8622;SDS011;4349;47.552;8.904;2022-08-01T12:22:41;2.22;;;2.13;;
8622;SDS011;4349;47.552;8.904;2022-08-01T12:25:10;2.22;;;2.13;;
8622;SDS011;4349;47.552;8.904;2022-08-01T12:27:38;2.20;;;2.10;;
8622;SDS011;4349;47.552;8.904;2022-08-01T12:30:09;2.10;;;2.00;;
8622;SDS011;4349;47.552;8.904;2022-08-01T12:32:39;1.70;;;1.70;;
8622;SDS011;4349;47.552;8.904;2022-08-01T12:35:08;1.77;;;1.67;;
8622;SDS011;4349;47.552;8.904;2022-08-01T12:37:39;1.90;;;1.80;;
8622;SDS011;4349;47.552;8.904;2022-08-01T12:40:10;1.83;;;1.83;;
8622;SDS011;4349;47.552;8.904;2022-08-01T12:42:38;1.55;;;1.55;;
8622;SDS011;4349;47.552;8.904;2022-08-01T12:45:07;1.55;;;1.50;;
8622;SDS011;4349;47.552;8.904;2022-08-01T12:47:35;1.65;;;1.65;;
8622;SDS011;4349;47.552;8.904;2022-08-01T12:50:05;1.50;;;1.50;;
8622;SDS011;4349;47.552;8.904;2022-08-01T12:52:33;1.60;;;1.60;;
8622;SDS011;4349;47.552;8.904;2022-08-01T12:55:02;1.40;;;1.40;;
8622;SDS011;4349;47.552;8.904;2022-08-01T12:57:35;1.50;;;1.50;;
8622;SDS011;4349;47.552;8.904;2022-08-01T13:00:05;1.50;;;1.50;;
8622;SDS011;4349;47.552;8.904;2022-08-01T13:02:33;1.70;;;1.60;;
8622;SDS011;4349;47.552;8.904;2022-08-01T13:05:01;1.13;;;1.13;;
8622;SDS011;4349;47.552;8.904;2022-08-01T13:07:37;1.45;;;1.40;;
8622;SDS011;4349;47.552;8.904;2022-08-01T13:10:11;1.60;;;1.60;;
8622;SDS011;4349;47.552;8.904;2022-08-01T13:12:39;1.52;;;1.52;;
8622;SDS011;4349;47.552;8.904;2022-08-01T13:15:17;1.50;;;1.50;;
8622;SDS011;4349;47.552;8.904;2022-08-01T13:17:44;1.65;;;1.55;;
8622;SDS011;4349;47.552;8.904;2022-08-01T13:20:20;1.50;;;1.50;;
8622;SDS011;4349;47.552;8.904;2022-08-01T13:22:50;1.42;;;1.42;;
8622;SDS011;4349;47.552;8.904;2022-08-01T13:25:18;1.70;;;1.70;;
8622;SDS011;4349;47.552;8.904;2022-08-01T13:27:48;1.63;;;1.63;;
8622;SDS011;4349;47.552;8.904;2022-08-01T13:30:20;1.50;;;1.50;;
8622;SDS011;4349;47.552;8.904;2022-08-01T13:32:57;1.50;;;1.50;;
8622;SDS011;4349;47.552;8.904;2022-08-01T13:35:24;1.45;;;1.45;;
8622;SDS011;4349;47.552;8.904;2022-08-01T13:37:53;1.85;;;1.85;;
8622;SDS011;4349;47.552;8.904;2022-08-01T13:40:23;1.73;;;1.63;;
8622;SDS011;4349;47.552;8.904;2022-08-01T13:42:51;1.70;;;1.70;;
8622;SDS011;4349;47.552;8.904;2022-08-01T13:45:19;1.77;;;1.75;;
8622;SDS011;4349;47.552;8.904;2022-08-01T13:47:48;1.60;;;1.60;;
8622;SDS011;4349;47.552;8.904;2022-08-01T13:50:36;1.50;;;1.50;;
8622;SDS011;4349;47.552;8.904;2022-08-01T13:53:05;1.65;;;1.65;;
8622;SDS011;4349;47.552;8.904;2022-08-01T13:55:32;1.50;;;1.50;;
8622;SDS011;4349;47.552;8.904;2022-08-01T13:58:01;1.50;;;1.50;;
8622;SDS011;4349;47.552;8.904;2022-08-01T14:00:28;1.60;;;1.60;;
8622;SDS011;4349;47.552;8.904;2022-08-01T14:02:56;1.42;;;1.42;;
8622;SDS011;4349;47.552;8.904;2022-08-01T14:05:24;1.67;;;1.58;;
8622;SDS011;4349;47.552;8.904;2022-08-01T14:07:51;2.58;;;1.60;;
8622;SDS011;4349;47.552;8.904;2022-08-01T14:10:23;1.60;;;1.60;;
8622;SDS011;4349;47.552;8.904;2022-08-01T14:12:51;1.70;;;1.65;;
8622;SDS011;4349;47.552;8.904;2022-08-01T14:15:22;1.75;;;1.65;;
8622;SDS011;4349;47.552;8.904;2022-08-01T14:18:05;1.60;;;1.60;;
8622;SDS011;4349;47.552;8.904;2022-08-01T14:20:34;1.42;;;1.40;;
8622;SDS011;4349;47.552;8.904;2022-08-01T14:23:03;1.35;;;1.35;;
8622;SDS011;4349;47.552;8.904;2022-08-01T14:25:35;1.50;;;1.50;;
8622;SDS011;4349;47.552;8.904;2022-08-01T14:28:23;1.50;;;1.50;;
8622;SDS011;4349;47.552;8.904;2022-08-01T14:30:53;1.25;;;1.20;;
8622;SDS011;4349;47.552;8.904;2022-08-01T14:33:21;1.23;;;1.23;;
8622;SDS011;4349;47.552;8.904;2022-08-01T14:35:49;1.40;;;1.40;;
8622;SDS011;4349;47.552;8.904;2022-08-01T14:38:32;1.20;;;1.20;;
8622;SDS011;4349;47.552;8.904;2022-08-01T14:41:01;1.10;;;1.10;;
8622;SDS011;4349;47.552;8.904;2022-08-01T14:43:29;1.30;;;1.30;;
8622;SDS011;4349;47.552;8.904;2022-08-01T14:45:59;1.02;;;1.02;;
8622;SDS011;4349;47.552;8.904;2022-08-01T14:48:27;1.08;;;1.08;;
8622;SDS011;4349;47.552;8.904;2022-08-01T14:50:55;1.05;;;1.05;;
8622;SDS011;4349;47.552;8.904;2022-08-01T14:53:23;1.05;;;1.05;;
8622;SDS011;4349;47.552;8.904;2022-08-01T14:55:51;1.30;;;1.30;;
8622;SDS011;4349;47.552;8.904;2022-08-01T14:58:19;0.90;;;0.90;;
8622;SDS011;4349;47.552;8.904;2022-08-01T15:00:47;0.90;;;0.90;;
8622;SDS011;4349;47.552;8.904;2022-08-01T15:03:15;0.90;;;0.90;;
8622;SDS011;4349;47.552;8.904;2022-08-01T15:05:42;1.30;;;1.00;;
8622;SDS011;4349;47.552;8.904;2022-08-01T15:08:10;1.10;;;1.00;;
8622;SDS011;4349;47.552;8.904;2022-08-01T15:10:37;1.00;;;1.00;;
8622;SDS011;4349;47.552;8.904;2022-08-01T15:13:05;0.95;;;0.90;;
8622;SDS011;4349;47.552;8.904;2022-08-01T15:15:35;0.90;;;0.90;;
8622;SDS011;4349;47.552;8.904;2022-08-01T15:18:03;0.80;;;0.80;;
8622;SDS011;4349;47.552;8.904;2022-08-01T15:20:30;1.13;;;1.13;;
8622;SDS011;4349;47.552;8.904;2022-08-01T15:22:59;0.90;;;0.90;;
8622;SDS011;4349;47.552;8.904;2022-08-01T15:25:26;1.13;;;0.98;;
8622;SDS011;4349;47.552;8.904;2022-08-01T15:28:07;0.90;;;0.90;;
8622;SDS011;4349;47.552;8.904;2022-08-01T15:30:36;0.82;;;0.82;;
8622;SDS011;4349;47.552;8.904;2022-08-01T15:33:04;1.00;;;1.00;;
8622;SDS011;4349;47.552;8.904;2022-08-01T15:35:32;0.80;;;0.80;;
8622;SDS011;4349;47.552;8.904;2022-08-01T15:37:59;1.00;;;1.00;;
8622;SDS011;4349;47.552;8.904;2022-08-01T15:40:27;1.10;;;1.10;;
8622;SDS011;4349;47.552;8.904;2022-08-01T15:42:55;1.10;;;1.10;;